地図

経路データ

SID SEASON NUMBER BASIN SUBBASIN NAME ISO_TIME NATURE LAT LON WMO_WIND WMO_PRES WMO_AGENCY TRACK_TYPE DIST2LAND LANDFALL IFLAG USA_AGENCY USA_ATCF_ID USA_LAT USA_LON USA_RECORD USA_STATUS USA_WIND USA_PRES USA_SSHS USA_R34_NE USA_R34_SE USA_R34_SW USA_R34_NW USA_R50_NE USA_R50_SE USA_R50_SW USA_R50_NW USA_R64_NE USA_R64_SE USA_R64_SW USA_R64_NW USA_POCI USA_ROCI USA_RMW USA_EYE TOKYO_LAT TOKYO_LON TOKYO_GRADE TOKYO_WIND TOKYO_PRES TOKYO_R50_DIR TOKYO_R50_LONG TOKYO_R50_SHORT TOKYO_R30_DIR TOKYO_R30_LONG TOKYO_R30_SHORT TOKYO_LAND CMA_LAT CMA_LON CMA_CAT CMA_WIND CMA_PRES HKO_LAT HKO_LON HKO_CAT HKO_WIND HKO_PRES NEWDELHI_LAT NEWDELHI_LON NEWDELHI_GRADE NEWDELHI_WIND NEWDELHI_PRES NEWDELHI_CI NEWDELHI_DP NEWDELHI_POCI REUNION_LAT REUNION_LON REUNION_TYPE REUNION_WIND REUNION_PRES REUNION_TNUM REUNION_CI REUNION_RMW REUNION_R34_NE REUNION_R34_SE REUNION_R34_SW REUNION_R34_NW REUNION_R50_NE REUNION_R50_SE REUNION_R50_SW REUNION_R50_NW REUNION_R64_NE REUNION_R64_SE REUNION_R64_SW REUNION_R64_NW BOM_LAT BOM_LON BOM_TYPE BOM_WIND BOM_PRES BOM_TNUM BOM_CI BOM_RMW BOM_R34_NE BOM_R34_SE BOM_R34_SW BOM_R34_NW BOM_R50_NE BOM_R50_SE BOM_R50_SW BOM_R50_NW BOM_R64_NE BOM_R64_SE BOM_R64_SW BOM_R64_NW BOM_ROCI BOM_POCI BOM_EYE BOM_POS_METHOD BOM_PRES_METHOD NADI_LAT NADI_LON NADI_CAT NADI_WIND NADI_PRES WELLINGTON_LAT WELLINGTON_LON WELLINGTON_WIND WELLINGTON_PRES DS824_LAT DS824_LON DS824_STAGE DS824_WIND DS824_PRES TD9636_LAT TD9636_LON TD9636_STAGE TD9636_WIND TD9636_PRES TD9635_LAT TD9635_LON TD9635_WIND TD9635_PRES TD9635_ROCI NEUMANN_LAT NEUMANN_LON NEUMANN_CLASS NEUMANN_WIND NEUMANN_PRES MLC_LAT MLC_LON MLC_CLASS MLC_WIND MLC_PRES USA_GUST BOM_GUST BOM_GUST_PER REUNION_GUST REUNION_GUST_PER USA_SEAHGT USA_SEARAD_NE USA_SEARAD_SE USA_SEARAD_SW USA_SEARAD_NW STORM_SPEED STORM_DIR
1925032S19070 1925 8 SI MM NOT_NAMED 1925-02-01 06:00:00 NR -19.4000 69.5000 reunion main 1227 1227 _____O________ -1 -19.4000 69.5000 99 9.90000 0 0
1925032S19070 1925 8 SI MM NOT_NAMED 1925-02-01 09:00:00 NR -19.4184 69.4861 main 1227 1227 _____P________ -1 -19.4184 69.4861 99 1 226
1925032S19070 1925 8 SI MM NOT_NAMED 1925-02-01 12:00:00 NR -19.4387 69.4605 main 1227 1215 _____P________ -1 -19.4387 69.4605 99 1 236
1925032S19070 1925 8 SI MM NOT_NAMED 1925-02-01 15:00:00 NR -19.4627 69.4113 main 1215 1205 _____P________ -1 -19.4627 69.4113 99 1 247
1925032S19070 1925 8 SI MM NOT_NAMED 1925-02-01 18:00:00 NR -19.4922 69.3269 main 1205 1194 _____P________ -1 -19.4922 69.3269 99 2 252
1925032S19070 1925 8 SI MM NOT_NAMED 1925-02-01 21:00:00 NR -19.5290 69.1954 main 1194 1172 _____P________ -1 -19.5290 69.1954 99 3 255
1925032S19070 1925 8 SI MM NOT_NAMED 1925-02-02 00:00:00 NR -19.5748 69.0051 main 1172 1152 _____P________ -1 -19.5748 69.0051 99 4 257
1925032S19070 1925 8 SI MM NOT_NAMED 1925-02-02 03:00:00 NR -19.6313 68.7439 main 1141 1109 _____P________ -1 -19.6313 68.7439 99 6 258
1925032S19070 1925 8 SI MM NOT_NAMED 1925-02-02 06:00:00 NR -19.7000 68.4000 reunion main 1109 1066 _____O________ -1 -19.7000 68.4000 99 9.90000 7 258
1925032S19070 1925 8 SI MM NOT_NAMED 1925-02-02 09:00:00 NR -19.7822 67.9664 main 1066 1013 _____P________ -1 -19.7822 67.9664 99 9 259
1925032S19070 1925 8 SI MM NOT_NAMED 1925-02-02 12:00:00 NR -19.8797 67.4561 main 1013 950 _____P________ -1 -19.8797 67.4561 99 10 258
1925032S19070 1925 8 SI MM NOT_NAMED 1925-02-02 15:00:00 NR -19.9942 66.8873 main 950 887 _____P________ -1 -19.9942 66.8873 99 11 257
1925032S19070 1925 8 SI MM NOT_NAMED 1925-02-02 18:00:00 NR -20.1278 66.2781 main 887 823 _____P________ -1 -20.1278 66.2781 99 12 256
1925032S19070 1925 8 SI MM NOT_NAMED 1925-02-02 21:00:00 NR -20.2826 65.6467 main 813 750 _____P________ -1 -20.2826 65.6467 99 12 254
1925032S19070 1925 8 SI MM NOT_NAMED 1925-02-03 00:00:00 NR -20.4610 65.0111 main 750 688 _____P________ -1 -20.4610 65.0111 99 12 252
1925032S19070 1925 8 SI MM NOT_NAMED 1925-02-03 03:00:00 NR -20.6658 64.3895 main 688 627 _____P________ -1 -20.6658 64.3895 99 12 249
1925032S19070 1925 8 SI MM NOT_NAMED 1925-02-03 06:00:00 NR -20.9000 63.8000 reunion main 627 578 _____O________ -1 -20.9000 63.8000 99 9.90000 12 244
1925032S19070 1925 8 SI MM NOT_NAMED 1925-02-03 09:00:00 NR -21.1809 63.2402 main 570 526 _____P________ -1 -21.1809 63.2402 99 12 240
1925032S19070 1925 8 SI MM NOT_NAMED 1925-02-03 12:00:00 NR -21.4956 62.6941 main 526 486 _____P________ -1 -21.4956 62.6941 99 12 237
1925032S19070 1925 8 SI MM NOT_NAMED 1925-02-03 15:00:00 NR -21.8351 62.1721 main 486 455 _____P________ -1 -21.8351 62.1721 99 12 233
1925032S19070 1925 8 SI MM NOT_NAMED 1925-02-03 18:00:00 NR -22.1907 61.6846 main 455 434 _____P________ -1 -22.1907 61.6846 99 11 230
1925032S19070 1925 8 SI MM NOT_NAMED 1925-02-03 21:00:00 NR -22.5535 61.2425 main 431 418 _____P________ -1 -22.5535 61.2425 99 11 227
1925032S19070 1925 8 SI MM NOT_NAMED 1925-02-04 00:00:00 NR -22.9151 60.8568 main 425 417 _____P________ -1 -22.9151 60.8568 99 10 222
1925032S19070 1925 8 SI MM NOT_NAMED 1925-02-04 03:00:00 NR -23.2667 60.5388 main 425 425 _____P________ -1 -23.2667 60.5388 99 9 217
1925032S19070 1925 8 SI MM NOT_NAMED 1925-02-04 06:00:00 NR -23.6000 60.3000 reunion main 438 438 _____O________ -1 -23.6000 60.3000 99 9.90000 7 210
1925032S19070 1925 8 SI MM NOT_NAMED 1925-02-04 09:00:00 NR -23.8975 60.1388 main 453 453 _____P________ -1 -23.8975 60.1388 99 6 201
1925032S19070 1925 8 SI MM NOT_NAMED 1925-02-04 12:00:00 NR -24.1831 60.0577 main 481 476 _____P________ -1 -24.1831 60.0577 99 6 189
1925032S19070 1925 8 SI MM NOT_NAMED 1925-02-04 15:00:00 NR -24.4561 60.0468 main 505 505 _____P________ -1 -24.4561 60.0468 99 5 176
1925032S19070 1925 8 SI MM NOT_NAMED 1925-02-04 18:00:00 NR -24.7157 60.0964 main 530 530 _____P________ -1 -24.7157 60.0964 99 5 165
1925032S19070 1925 8 SI MM NOT_NAMED 1925-02-04 21:00:00 NR -24.9608 60.1966 main 564 564 _____P________ -1 -24.9608 60.1966 99 5 156
1925032S19070 1925 8 SI MM NOT_NAMED 1925-02-05 00:00:00 NR -25.1906 60.3373 main 588 588 _____P________ -1 -25.1906 60.3373 99 5 148
1925032S19070 1925 8 SI MM NOT_NAMED 1925-02-05 03:00:00 NR -25.4040 60.5086 main 618 618 _____P________ -1 -25.4040 60.5086 99 5 141
1925032S19070 1925 8 SI MM NOT_NAMED 1925-02-05 06:00:00 NR -25.6000 60.7000 reunion main 647 647 _____O________ -1 -25.6000 60.7000 99 9.90000 5 144
1925032S19070 1925 8 SI MM NOT_NAMED 1925-02-05 09:00:00 NR -25.7957 60.8215 main 671 671 _____P________ -1 -25.7957 60.8215 99 4 147
1925032S19070 1925 8 SI MM NOT_NAMED 1925-02-05 12:00:00 NR -25.9744 60.9678 main 700 700 _____P________ -1 -25.9744 60.9678 99 4 140
1925032S19070 1925 8 SI MM NOT_NAMED 1925-02-05 15:00:00 NR -26.1364 61.1414 main 715 715 _____P________ -1 -26.1364 61.1414 99 5 132
1925032S19070 1925 8 SI MM NOT_NAMED 1925-02-05 18:00:00 NR -26.2818 61.3446 main 744 744 _____P________ -1 -26.2818 61.3446 99 5 125
1925032S19070 1925 8 SI MM NOT_NAMED 1925-02-05 21:00:00 NR -26.4107 61.5797 main 769 769 _____P________ -1 -26.4107 61.5797 99 5 118
1925032S19070 1925 8 SI MM NOT_NAMED 1925-02-06 00:00:00 NR -26.5234 61.8491 main 789 789 _____P________ -1 -26.5234 61.8491 99 6 112
1925032S19070 1925 8 SI MM NOT_NAMED 1925-02-06 03:00:00 NR -26.6198 62.1551 main 821 821 _____P________ -1 -26.6198 62.1551 99 6 107
1925032S19070 1925 8 SI MM NOT_NAMED 1925-02-06 06:00:00 NR -26.7000 62.5000 reunion main 847 847 _____O________ -1 -26.7000 62.5000 99 9.90000 7 102
1925032S19070 1925 8 SI MM NOT_NAMED 1925-02-06 09:00:00 NR -26.7643 62.8850 main 880 880 _____P________ -1 -26.7643 62.8850 99 7 99
1925032S19070 1925 8 SI MM NOT_NAMED 1925-02-06 12:00:00 NR -26.8139 63.3060 main 905 905 _____P________ -1 -26.8139 63.3060 99 8 96
1925032S19070 1925 8 SI MM NOT_NAMED 1925-02-06 15:00:00 NR -26.8506 63.7580 main 946 946 _____P________ -1 -26.8506 63.7580 99 8 94
1925032S19070 1925 8 SI MM NOT_NAMED 1925-02-06 18:00:00 NR -26.8760 64.2358 main 973 973 _____P________ -1 -26.8760 64.2358 99 9 93
1925032S19070 1925 8 SI MM NOT_NAMED 1925-02-06 21:00:00 NR -26.8918 64.7341 main 1009 1009 _____P________ -1 -26.8918 64.7341 99 9 92
1925032S19070 1925 8 SI MM NOT_NAMED 1925-02-07 00:00:00 NR -26.8998 65.2477 main 1045 1045 _____P________ -1 -26.8998 65.2477 99 9 91
1925032S19070 1925 8 SI MM NOT_NAMED 1925-02-07 03:00:00 NR -26.9019 65.7714 main 1090 1090 _____P________ -1 -26.9019 65.7714 99 9 90
1925032S19070 1925 8 SI MM NOT_NAMED 1925-02-07 06:00:00 NR -26.9000 66.3000 reunion main 1129 _____O________ -1 -26.9000 66.3000 99 9.90000 9 90

IBTrACS Databaseについて

本データベースは、米国NOAAが公開する1842年以降の世界の熱帯低気圧のベストトラックデータアーカイブInternational Best Track Archive for Climate Stewardship (IBTrACS)を、ウェブで閲覧しやすい形式に変換したものです。

最終更新日:2021-10-27